Kugluktuk Airport
CYCO : now visible

Airfield :











YOU CAN JOIN US ON...

 
LOGIN :

Register | Disclaimer

   EN    FR    IT 

 









Legend :    VFR   Marginal VFR   IFR   Intensive IFR   Very Intensive IFR
Visi :
Ceiling :
>= 8 km
>= 3000ft
5 to 8 km
1000 to 3000 ft
1500m to 5 km
500 to 1000 ft
800 to 1500m
200 to 500 ft
< 800m
< 200 ft
Symbols :   Thunderstorms  Fog  Heavy snow  Heavy precipitations  Wind > 20 kt






- Airport Elevation : 74 ft
- IATA code : YCO


CYCO - Kugluktuk

CURRENT METAR :
  • 121400Z 02013KT 1/4SM -RA FG VV002 07/07 A2981 RMK FG8 SLP097

EXPIRED METARs :
  • 121319Z 02014KT 1/4SM -RA FG VV002 07/07 A2981 RMK FG8 SLP097
  • 121300Z 02014KT 1/4SM -DZ FG VV003 07/07 A2981 RMK FG8 SLP097
  • 121243Z 02015KT 1/4SM -DZ FG VV003 07/07 A2981 RMK FG8 SLP097
  • 121211Z 36015KT 1SM -DZ BR OVC002 07/07 A2981 RMK FG4ST4 SLP098
  • 121200Z 01015KT 1 1/2SM -DZ BR OVC003 07/07 A2982 RMK FG3ST5 SLP099

TAF TAF CYCO
Valid from the 12 at 13:00 until the 13 at 01:00 UTC


121238Z 1213/1301 01015KT 1SM -DZ BR OVC002
TEMPO 1213/1301 5SM BR OVC008
BECMG 1213/1215 05012KT RMK NXT FCST BY 121900Z
CZEG FIR / North America



MET'MAP, your aeronautical weather chart ! - Copyright ORBIFLY December 2007 - Disclaimer

ORBIFLY MET'MAP TEAM :

Programming & Development : Alexandra Zaïnal
Concept & original design : Baudouin d'Aumeries
Assistance for programming : Marc-Olivier Méhu
Technical & hardware support : Manuel Goepfert

Contact : metmap@orbifly.com




SOURCES & CREDITS :

   NOAA       Earth
Advisory